Roslindale, Massachusetts
Current Conditions -  °F | °C
As of 3:53 PM on Tuesday 25 Nov 2014 (Local Time) from KOWD Reporting Station
Clear Clear  
Wind Chill: 57°   Ceiling: Unl
Heat Index: 57°   Visibility: 10mi
Dew Point: 25°   Wind: 10mph
Humidity: 29%   Direction: 230°SW
Pressure: 29.91"   Gusts: NA
Location:  42.28°N, 71.13°W
Report Text: KOWD 252053Z 23009KT 10SM CLR 14/M04 A2991 RMK AO2 SLP127 T01391039 51014
Loading
Personal Weather Stations






























Interactive Weather Map New forecast layout! Learn more

10-Day Weather Forecast

Advertisements
Track Severe Weather on mobile